Terminal Aerodrome Forecast
Issued by NWS Goodland, KS

Home | Current Version | Previous Version | Text Only | Print | Product List | Glossary On
Versions: 1 2 3 4 5 6 7 8 9 10 11 12
000
FTUS43 KGLD 232339
TAFGLD
TAF
KGLD 232339Z 2400/2424 35013KT P6SM FEW080 SCT300
     FM240200 31010KT P6SM BKN080
     FM240700 29010KT P6SM FEW300
     FM241700 28014G25KT P6SM FEW250=

USA.gov is the U.S. government's official web portal to all federal, state and local government web resources and services.